createdAt,value
2023-01-06T00:00:20.808Z,8.60
2023-01-06T00:04:02.071Z,7.20
2023-01-06T00:07:29.030Z,5.90
2023-01-06T00:10:56.463Z,4.50
2023-01-06T00:14:23.811Z,4.70
2023-01-06T00:17:50.953Z,5.70
2023-01-06T00:21:18.368Z,5.10
2023-01-06T00:24:46.445Z,4.70
2023-01-06T00:28:14.394Z,4.70
2023-01-06T00:31:42.697Z,4.90
2023-01-06T00:35:10.570Z,5.10
2023-01-06T00:38:38.864Z,3.20
2023-01-06T00:42:05.267Z,4.00
2023-01-06T00:45:33.793Z,3.90
2023-01-06T00:49:06.200Z,4.00
2023-01-06T00:52:36.355Z,5.00
2023-01-06T00:56:06.845Z,3.80
2023-01-06T00:59:35.039Z,5.70
2023-01-06T01:03:13.364Z,10.60
2023-01-06T01:06:42.869Z,8.50
2023-01-06T01:10:13.665Z,7.40
2023-01-06T01:13:41.057Z,7.00
2023-01-06T01:17:08.468Z,7.30
2023-01-06T01:20:35.771Z,6.70
2023-01-06T01:24:02.009Z,6.40
2023-01-06T01:27:29.149Z,5.70
2023-01-06T01:31:03.845Z,6.70
2023-01-06T01:34:30.538Z,6.00
2023-01-06T01:37:57.666Z,4.90
2023-01-06T01:41:25.983Z,7.30
2023-01-06T01:45:01.648Z,4.20
2023-01-06T01:48:37.695Z,3.40
2023-01-06T01:52:14.273Z,4.00
2023-01-06T01:55:41.346Z,3.90
2023-01-06T01:59:12.889Z,5.90
2023-01-06T02:02:40.674Z,3.20
2023-01-06T02:06:12.995Z,4.70
2023-01-06T02:09:46.320Z,5.30
2023-01-06T02:13:16.363Z,4.80
2023-01-06T02:16:55.040Z,8.60
2023-01-06T02:20:39.611Z,15.50
2023-01-06T02:24:46.058Z,9.40
2023-01-06T02:28:47.051Z,17.90
2023-01-06T02:32:29.200Z,13.30
2023-01-06T02:36:18.450Z,12.30
2023-01-06T02:39:57.507Z,13.40
2023-01-06T02:43:32.588Z,10.70
2023-01-06T02:47:16.750Z,14.30
2023-01-06T02:50:48.619Z,11.60
2023-01-06T02:54:21.891Z,11.40
2023-01-06T02:57:55.434Z,11.50
2023-01-06T03:01:27.930Z,11.70
2023-01-06T03:04:57.908Z,6.50
2023-01-06T03:08:29.461Z,4.00
2023-01-06T03:11:57.398Z,3.40
2023-01-06T03:15:26.609Z,3.40
2023-01-06T03:18:56.081Z,4.30
2023-01-06T03:22:25.407Z,3.00
2023-01-06T03:25:52.821Z,4.00
2023-01-06T03:29:23.022Z,3.20
2023-01-06T03:33:00.638Z,3.80
2023-01-06T03:36:38.787Z,3.40
2023-01-06T03:40:11.227Z,6.50
2023-01-06T03:43:45.901Z,5.20
2023-01-06T03:47:18.689Z,4.20
2023-01-06T03:50:52.216Z,4.00
2023-01-06T03:54:33.975Z,7.10
2023-01-06T03:58:04.676Z,4.70
2023-01-06T04:01:33.071Z,4.50
2023-01-06T04:05:11.509Z,5.30
2023-01-06T04:08:38.009Z,3.80
2023-01-06T04:12:22.743Z,3.50
2023-01-06T04:15:51.028Z,3.20
2023-01-06T04:19:18.466Z,2.80
2023-01-06T04:22:45.198Z,4.10
2023-01-06T04:26:14.664Z,2.90
2023-01-06T04:29:49.194Z,2.80
2023-01-06T04:33:17.215Z,2.00
2023-01-06T04:36:57.572Z,3.00
2023-01-06T04:40:27.722Z,1.90
2023-01-06T04:44:00.973Z,2.70
2023-01-06T04:47:32.509Z,3.80
2023-01-06T04:51:09.831Z,3.10
2023-01-06T04:54:37.313Z,3.20
2023-01-06T04:58:08.091Z,3.10
2023-01-06T05:01:37.904Z,3.30
2023-01-06T05:05:13.821Z,4.40
2023-01-06T05:08:43.796Z,4.10
2023-01-06T05:12:12.465Z,6.60
2023-01-06T05:15:43.467Z,6.90
2023-01-06T05:19:13.046Z,3.30
2023-01-06T05:22:40.029Z,3.60
2023-01-06T05:26:08.264Z,3.00
2023-01-06T05:29:35.553Z,4.20
2023-01-06T05:33:02.099Z,13.30
2023-01-06T05:36:29.310Z,4.20
2023-01-06T05:39:56.142Z,7.10
2023-01-06T05:43:23.989Z,5.10
2023-01-06T05:46:52.159Z,6.00
2023-01-06T05:50:19.590Z,3.90
2023-01-06T05:53:49.666Z,2.90
2023-01-06T05:57:16.018Z,2.80
2023-01-06T06:00:42.759Z,3.10
2023-01-06T06:04:09.448Z,3.50
2023-01-06T06:07:36.047Z,4.30
2023-01-06T06:11:07.151Z,4.00
2023-01-06T06:14:34.460Z,2.90
2023-01-06T06:18:02.810Z,3.10
2023-01-06T06:21:31.495Z,4.80
2023-01-06T06:24:59.214Z,4.00
2023-01-06T06:28:27.344Z,4.30
2023-01-06T06:31:54.613Z,3.60
2023-01-06T06:35:21.668Z,4.20
2023-01-06T06:38:50.472Z,7.00
2023-01-06T06:42:19.761Z,7.40
2023-01-06T06:45:50.034Z,11.80
2023-01-06T06:49:16.844Z,12.90
2023-01-06T06:52:43.538Z,15.00
2023-01-06T06:56:11.964Z,13.60
2023-01-06T06:59:39.365Z,8.70
2023-01-06T07:03:06.521Z,6.80
2023-01-06T07:06:33.292Z,4.80
2023-01-06T07:10:00.153Z,4.40
2023-01-06T07:13:28.031Z,6.30
2023-01-06T07:17:01.526Z,5.70
2023-01-06T07:23:58.694Z,5.80
2023-01-06T07:27:25.871Z,5.10
2023-01-06T07:30:52.652Z,4.70
2023-01-06T07:34:19.274Z,5.50
2023-01-06T07:37:45.674Z,5.60
2023-01-06T07:41:12.158Z,5.10
2023-01-06T07:44:38.980Z,5.10
2023-01-06T07:48:06.477Z,5.60
2023-01-06T07:51:34.790Z,4.50
2023-01-06T07:55:01.541Z,6.30
2023-01-06T07:58:28.612Z,8.60
2023-01-06T08:01:58.935Z,10.90
2023-01-06T08:05:29.291Z,7.50
2023-01-06T08:09:00.258Z,10.30
2023-01-06T08:12:27.712Z,9.40
2023-01-06T08:15:55.220Z,10.30
2023-01-06T08:19:22.078Z,8.00
2023-01-06T08:22:48.561Z,6.90
2023-01-06T08:26:17.891Z,8.90
2023-01-06T08:29:44.623Z,10.30
2023-01-06T08:33:11.193Z,9.20
2023-01-06T08:36:39.152Z,8.30
2023-01-06T08:40:10.468Z,10.80
2023-01-06T08:43:39.055Z,13.30
2023-01-06T08:47:07.078Z,9.90
2023-01-06T08:50:36.479Z,11.20
2023-01-06T08:54:03.261Z,10.40
2023-01-06T08:57:30.419Z,9.60
2023-01-06T09:00:57.378Z,11.20
2023-01-06T09:04:24.526Z,19.40
2023-01-06T09:07:52.041Z,18.90
2023-01-06T09:11:19.384Z,11.40
2023-01-06T09:14:46.153Z,10.70
2023-01-06T09:18:13.609Z,12.30
2023-01-06T09:21:43.060Z,12.50
2023-01-06T09:25:12.710Z,14.80
2023-01-06T09:28:39.617Z,14.50
2023-01-06T09:32:06.285Z,12.40
2023-01-06T09:35:32.764Z,13.80
2023-01-06T09:38:59.116Z,12.80
2023-01-06T09:42:42.947Z,12.40
2023-01-06T09:46:12.046Z,11.30
2023-01-06T09:49:44.490Z,12.00
2023-01-06T09:53:19.775Z,9.40
2023-01-06T09:56:51.155Z,7.50
2023-01-06T10:00:28.940Z,9.10
2023-01-06T10:03:57.108Z,10.00
2023-01-06T10:07:30.778Z,11.80
2023-01-06T10:14:47.660Z,14.50
2023-01-06T10:18:33.271Z,13.30
2023-01-06T10:22:12.801Z,16.00
2023-01-06T10:25:43.429Z,9.80
2023-01-06T10:29:17.585Z,12.40
2023-01-06T10:32:45.580Z,11.80
2023-01-06T10:36:16.729Z,13.50
2023-01-06T10:39:47.346Z,12.40
2023-01-06T10:43:16.088Z,13.50
2023-01-06T10:46:49.923Z,14.90
2023-01-06T10:50:20.284Z,12.30
2023-01-06T10:53:46.984Z,16.50
2023-01-06T10:57:22.643Z,17.20
2023-01-06T11:01:00.206Z,14.00
2023-01-06T11:04:28.482Z,22.40
2023-01-06T11:08:04.438Z,35.60
2023-01-06T11:11:31.817Z,22.00
2023-01-06T11:15:01.702Z,17.10
2023-01-06T11:18:31.804Z,32.20
2023-01-06T11:21:58.172Z,61.80
2023-01-06T11:25:32.302Z,24.60
2023-01-06T11:29:18.097Z,15.50
2023-01-06T11:32:45.235Z,18.50
2023-01-06T11:36:16.103Z,18.00
2023-01-06T11:39:49.124Z,16.80
2023-01-06T11:43:23.526Z,19.70
2023-01-06T11:46:53.977Z,16.80
2023-01-06T11:50:23.847Z,19.00
2023-01-06T11:54:01.694Z,23.60
2023-01-06T11:57:41.543Z,16.90
2023-01-06T12:01:17.317Z,16.90
2023-01-06T12:04:49.864Z,16.40
2023-01-06T12:08:23.020Z,17.00
2023-01-06T12:11:53.195Z,12.10
2023-01-06T12:15:21.367Z,14.50
2023-01-06T12:18:51.203Z,12.80
2023-01-06T12:22:26.650Z,15.30
2023-01-06T12:25:59.169Z,16.90
2023-01-06T12:29:27.968Z,18.60
2023-01-06T12:32:58.694Z,16.50
2023-01-06T12:36:34.914Z,16.70
2023-01-06T12:40:11.192Z,20.20
2023-01-06T12:43:42.574Z,16.10
2023-01-06T12:47:18.303Z,11.70
2023-01-06T12:50:52.794Z,12.00
2023-01-06T12:54:25.349Z,12.00
2023-01-06T12:58:00.584Z,8.80
2023-01-06T13:01:37.872Z,11.90
2023-01-06T13:05:34.470Z,21.00
2023-01-06T13:09:12.369Z,23.00
2023-01-06T13:13:00.717Z,21.20
2023-01-06T13:16:33.226Z,17.70
2023-01-06T13:20:06.196Z,22.10
2023-01-06T13:23:52.247Z,20.30
2023-01-06T13:27:42.358Z,19.40
2023-01-06T13:31:27.872Z,18.90
2023-01-06T13:35:11.897Z,27.60
2023-01-06T13:38:57.730Z,39.00
2023-01-06T13:42:37.433Z,26.60
2023-01-06T13:46:09.479Z,29.90
2023-01-06T13:49:39.388Z,30.50
2023-01-06T13:53:07.973Z,19.30
2023-01-06T13:56:36.200Z,45.20
2023-01-06T14:00:18.746Z,28.00
2023-01-06T14:03:46.999Z,26.60
2023-01-06T14:07:15.210Z,19.80
2023-01-06T14:10:44.380Z,22.30
2023-01-06T14:14:25.379Z,21.40
2023-01-06T14:17:52.073Z,19.30
2023-01-06T14:21:24.265Z,18.80
2023-01-06T14:24:56.676Z,19.50
2023-01-06T14:28:36.086Z,22.30
2023-01-06T14:32:07.710Z,18.80
2023-01-06T14:35:43.496Z,20.90
2023-01-06T14:39:20.879Z,20.10
2023-01-06T14:42:53.731Z,16.30
2023-01-06T14:46:27.135Z,18.10
2023-01-06T14:50:00.039Z,19.00
2023-01-06T14:53:33.617Z,19.10
2023-01-06T14:57:06.289Z,20.70
2023-01-06T15:00:34.640Z,27.70
2023-01-06T15:04:05.691Z,32.90
2023-01-06T15:07:34.990Z,26.90
2023-01-06T15:11:21.683Z,28.00
2023-01-06T15:14:48.982Z,23.30
2023-01-06T15:18:17.520Z,25.80
2023-01-06T15:21:47.177Z,24.90
2023-01-06T15:25:24.236Z,23.80
2023-01-06T15:29:03.478Z,22.40
2023-01-06T15:32:30.597Z,24.10
2023-01-06T15:35:58.632Z,25.80
2023-01-06T15:39:30.427Z,23.80
2023-01-06T15:42:57.174Z,23.90
2023-01-06T15:46:24.007Z,28.90
2023-01-06T15:49:56.731Z,21.00
2023-01-06T15:53:26.733Z,25.90
2023-01-06T15:56:53.594Z,23.60
2023-01-06T16:00:27.335Z,22.90
2023-01-06T16:03:56.975Z,26.50
2023-01-06T16:07:36.610Z,24.30
2023-01-06T16:12:02.781Z,26.40
2023-01-06T16:15:47.997Z,27.90
2023-01-06T16:19:24.675Z,28.10
2023-01-06T16:22:54.679Z,32.00
2023-01-06T16:26:24.217Z,32.60
2023-01-06T16:30:08.966Z,36.80
2023-01-06T16:33:40.496Z,29.70
2023-01-06T16:37:07.380Z,30.80
2023-01-06T16:40:34.081Z,27.50
2023-01-06T16:44:00.375Z,31.30
2023-01-06T16:47:27.195Z,44.70
2023-01-06T16:50:55.311Z,64.30
2023-01-06T16:54:22.306Z,41.30
2023-01-06T16:57:52.484Z,47.00
2023-01-06T17:01:23.745Z,42.80
2023-01-06T17:04:51.558Z,35.80
2023-01-06T17:08:26.813Z,27.70
2023-01-06T17:11:54.412Z,31.30
2023-01-06T17:15:21.027Z,29.60
2023-01-06T17:18:55.172Z,28.60
2023-01-06T17:22:28.012Z,25.10
2023-01-06T17:26:01.752Z,28.50
2023-01-06T17:29:34.389Z,27.70
2023-01-06T17:33:01.092Z,30.50
2023-01-06T17:36:32.851Z,32.30
2023-01-06T17:40:00.953Z,31.00
2023-01-06T17:43:36.605Z,33.20
2023-01-06T17:47:06.980Z,38.30
2023-01-06T17:50:37.365Z,38.00
2023-01-06T17:54:29.554Z,33.00
2023-01-06T17:58:01.597Z,31.90
2023-01-06T18:01:32.478Z,35.70
2023-01-06T18:05:04.710Z,48.70
2023-01-06T18:08:35.455Z,55.30
2023-01-06T18:12:11.515Z,38.50
2023-01-06T18:15:38.773Z,51.60
2023-01-06T18:19:33.770Z,39.20
2023-01-06T18:23:04.208Z,44.20
2023-01-06T18:26:41.237Z,39.20
2023-01-06T18:30:21.920Z,49.70
2023-01-06T18:33:53.558Z,46.40
2023-01-06T18:37:23.086Z,51.90
2023-01-06T18:40:51.142Z,40.70
2023-01-06T18:44:26.960Z,44.30
2023-01-06T18:47:58.158Z,49.30
2023-01-06T18:51:26.012Z,47.60
2023-01-06T18:54:57.449Z,66.30
2023-01-06T18:58:39.076Z,85.60
2023-01-06T19:02:25.832Z,58.60
2023-01-06T19:05:53.673Z,58.90
2023-01-06T19:09:27.945Z,88.20
2023-01-06T19:13:00.027Z,70.20
2023-01-06T19:16:36.400Z,59.60
2023-01-06T19:20:18.167Z,68.60
2023-01-06T19:23:55.692Z,68.10
2023-01-06T19:27:40.364Z,68.40
2023-01-06T19:31:17.916Z,72.80
2023-01-06T19:34:45.873Z,71.30
2023-01-06T19:38:27.705Z,79.30
2023-01-06T19:42:00.066Z,76.90
2023-01-06T19:45:35.154Z,83.10
2023-01-06T19:52:44.837Z,82.00
2023-01-06T19:56:27.504Z,80.90
2023-01-06T19:59:59.542Z,83.80
2023-01-06T20:03:31.547Z,69.00
2023-01-06T20:07:02.907Z,66.90
2023-01-06T20:10:34.917Z,60.30
2023-01-06T20:14:04.337Z,56.10
2023-01-06T20:17:36.961Z,59.30
2023-01-06T20:21:05.638Z,55.70
2023-01-06T20:24:38.469Z,56.80
2023-01-06T20:28:14.844Z,49.00
2023-01-06T20:31:54.937Z,57.00
2023-01-06T20:35:26.819Z,54.00
2023-01-06T20:39:01.740Z,55.20
2023-01-06T20:42:35.152Z,52.60
2023-01-06T20:46:08.929Z,55.60
2023-01-06T20:49:37.360Z,51.50
2023-01-06T20:53:07.949Z,53.00
2023-01-06T20:56:42.904Z,58.40
2023-01-06T21:00:22.050Z,58.90
2023-01-06T21:03:59.657Z,56.70
2023-01-06T21:07:27.357Z,64.00
2023-01-06T21:10:59.380Z,66.20
2023-01-06T21:14:28.374Z,67.30
2023-01-06T21:18:04.346Z,70.90
2023-01-06T21:21:33.622Z,67.70
2023-01-06T21:25:06.838Z,57.30
2023-01-06T21:28:39.063Z,50.10
2023-01-06T21:32:08.550Z,44.70
2023-01-06T21:35:43.692Z,49.00
2023-01-06T21:39:14.925Z,48.30
2023-01-06T21:43:02.720Z,43.50
2023-01-06T21:46:38.497Z,41.40
2023-01-06T21:50:09.951Z,51.70
2023-01-06T21:53:45.155Z,44.30
2023-01-06T21:57:18.218Z,42.50
2023-01-06T22:00:49.951Z,39.90
2023-01-06T22:04:26.877Z,31.40
2023-01-06T22:07:57.516Z,30.90
2023-01-06T22:11:34.101Z,35.50
2023-01-06T22:15:04.616Z,41.80
2023-01-06T22:18:33.111Z,39.00
2023-01-06T22:22:05.686Z,42.80
2023-01-06T22:25:32.849Z,46.40
2023-01-06T22:29:01.181Z,48.40
2023-01-06T22:32:29.723Z,45.60
2023-01-06T22:36:03.423Z,46.70
2023-01-06T22:39:32.044Z,42.10
2023-01-06T22:42:59.414Z,37.80
2023-01-06T22:46:35.583Z,41.30
2023-01-06T22:50:02.930Z,40.10
2023-01-06T22:53:31.901Z,37.80
2023-01-06T22:57:02.515Z,32.70
2023-01-06T23:00:29.555Z,39.10
2023-01-06T23:03:58.640Z,34.10
2023-01-06T23:07:30.240Z,31.70
2023-01-06T23:11:05.087Z,25.30
2023-01-06T23:14:34.029Z,30.40
2023-01-06T23:18:00.767Z,25.80
2023-01-06T23:21:31.607Z,26.90
2023-01-06T23:25:00.511Z,28.40
2023-01-06T23:28:29.215Z,29.00
2023-01-06T23:31:58.987Z,29.00
2023-01-06T23:35:38.095Z,24.70
2023-01-06T23:39:10.889Z,32.90
2023-01-06T23:42:48.020Z,30.50
2023-01-06T23:46:19.275Z,35.00
2023-01-06T23:49:48.506Z,32.00
2023-01-06T23:53:15.649Z,28.20
2023-01-06T23:56:43.459Z,30.50
